createdAt,value
2017-01-23T00:00:04.016Z,99.47
2017-01-23T00:01:04.692Z,99
2017-01-23T00:02:05.368Z,98.9
2017-01-23T00:03:06.071Z,99
2017-01-23T00:04:06.737Z,99.19
2017-01-23T00:05:07.413Z,99.95
2017-01-23T00:06:08.093Z,99.76
2017-01-23T00:07:08.752Z,99.57
2017-01-23T00:08:09.411Z,99.57
2017-01-23T00:09:10.098Z,98.9
2017-01-23T00:10:10.767Z,99.19
2017-01-23T00:11:11.442Z,99.09
2017-01-23T00:12:12.105Z,98.9
2017-01-23T00:13:12.788Z,98.9
2017-01-23T00:14:13.453Z,99
2017-01-23T00:15:14.120Z,99.09
2017-01-23T00:16:14.803Z,99.09
2017-01-23T00:17:15.476Z,99.19
2017-01-23T00:18:16.144Z,98.9
2017-01-23T00:19:16.818Z,99.19
2017-01-23T00:20:17.490Z,99.19
2017-01-23T00:21:18.173Z,99.47
2017-01-23T00:22:18.835Z,99.09
2017-01-23T00:23:19.531Z,99.28
2017-01-23T00:24:20.193Z,99.66
2017-01-23T00:25:20.857Z,98.9
2017-01-23T00:26:21.526Z,99.19
2017-01-23T00:27:22.218Z,98.9
2017-01-23T00:28:22.922Z,99.19
2017-01-23T00:29:23.613Z,99.09
2017-01-23T00:30:24.287Z,99.09
2017-01-23T00:31:24.961Z,99.24
2017-01-23T00:32:25.773Z,99.38
2017-01-23T00:33:26.455Z,98.71
2017-01-23T00:34:27.131Z,98.43
2017-01-23T00:35:27.814Z,98.05
2017-01-23T00:36:28.497Z,98.62
2017-01-23T00:37:29.185Z,98.62
2017-01-23T00:38:29.853Z,98.62
2017-01-23T00:39:30.533Z,99
2017-01-23T00:40:31.207Z,99.38
2017-01-23T00:41:31.888Z,99
2017-01-23T00:42:32.560Z,99.28
2017-01-23T00:43:33.229Z,99.99
2017-01-23T00:44:33.890Z,99.57
2017-01-23T00:45:34.554Z,99.47
2017-01-23T00:46:35.221Z,99.76
2017-01-23T00:47:35.896Z,99.57
2017-01-23T00:48:36.558Z,99.66
2017-01-23T00:49:37.221Z,98.81
2017-01-23T00:50:37.896Z,99.09
2017-01-23T00:51:38.598Z,98.9
2017-01-23T00:52:39.252Z,99.28
2017-01-23T00:53:39.934Z,99.47
2017-01-23T00:54:40.610Z,98.9
2017-01-23T00:55:41.271Z,99.28
2017-01-23T00:56:41.936Z,99.28
2017-01-23T00:57:42.612Z,99.09
2017-01-23T00:58:43.266Z,99.57
2017-01-23T00:59:43.946Z,99.95
2017-01-23T01:00:44.623Z,99.38
2017-01-23T01:01:45.308Z,99.09
2017-01-23T01:02:45.965Z,98.9
2017-01-23T01:03:46.635Z,99.09
2017-01-23T01:04:47.298Z,99.28
2017-01-23T01:05:47.984Z,99.38
2017-01-23T01:06:48.671Z,99.09
2017-01-23T01:07:49.329Z,99.38
2017-01-23T01:08:50.016Z,99.09
2017-01-23T01:09:50.675Z,99.09
2017-01-23T01:10:51.346Z,98.9
2017-01-23T01:11:52.023Z,99.47
2017-01-23T01:12:52.696Z,99.19
2017-01-23T01:13:53.363Z,98.43
2017-01-23T01:14:54.029Z,98.43
2017-01-23T01:15:54.707Z,98.14
2017-01-23T01:16:55.379Z,97.86
2017-01-23T01:17:56.052Z,98.62
2017-01-23T01:18:56.735Z,99.38
2017-01-23T01:19:57.411Z,99
2017-01-23T01:20:58.063Z,99.19
2017-01-23T01:21:58.737Z,99
2017-01-23T01:22:59.408Z,99.38
2017-01-23T01:24:00.069Z,99.85
2017-01-23T01:25:00.755Z,99.95
2017-01-23T01:26:01.482Z,99.85
2017-01-23T01:27:02.120Z,99.85
2017-01-23T01:28:02.828Z,99.19
2017-01-23T01:29:03.548Z,99.38
2017-01-23T01:30:04.242Z,99.38
2017-01-23T01:31:04.936Z,99.19
2017-01-23T01:32:05.603Z,99.09
2017-01-23T01:33:06.273Z,99.99
2017-01-23T01:34:06.934Z,99.19
2017-01-23T01:35:07.606Z,99.28
2017-01-23T01:36:08.276Z,99
2017-01-23T01:37:08.953Z,99.38
2017-01-23T01:38:09.626Z,99.57
2017-01-23T01:39:10.303Z,99.57
2017-01-23T01:40:10.965Z,99.57
2017-01-23T01:41:11.634Z,99.57
2017-01-23T01:42:12.309Z,99.95
2017-01-23T01:43:12.987Z,99.76
2017-01-23T01:44:13.646Z,99.38
2017-01-23T01:45:14.332Z,98.9
2017-01-23T01:46:15.007Z,99.66
2017-01-23T01:47:15.673Z,99.28
2017-01-23T01:48:16.353Z,98.71
2017-01-23T01:49:17.023Z,99.66
2017-01-23T01:50:17.692Z,99.95
2017-01-23T01:51:18.359Z,99.38
2017-01-23T01:52:19.031Z,99.57
2017-01-23T01:53:19.704Z,99.38
2017-01-23T01:54:20.367Z,99.09
2017-01-23T01:55:21.040Z,99.19
2017-01-23T01:56:21.723Z,99.09
2017-01-23T01:57:22.391Z,99.09
2017-01-23T01:58:23.094Z,99.09
2017-01-23T01:59:23.777Z,99.19
2017-01-23T02:00:24.455Z,99.09
2017-01-23T02:01:25.126Z,99.95
2017-01-23T02:02:25.806Z,99.28
2017-01-23T02:03:26.472Z,99.99
2017-01-23T02:04:27.152Z,99.85
2017-01-23T02:05:27.820Z,99.95
2017-01-23T02:06:28.522Z,99.99
2017-01-23T02:07:29.186Z,99.99
2017-01-23T02:08:29.863Z,99.99
2017-01-23T02:09:30.532Z,99.99
2017-01-23T02:10:31.215Z,99.99
2017-01-23T02:11:31.894Z,99.99
2017-01-23T02:12:32.579Z,99.99
2017-01-23T02:13:33.247Z,99.99
2017-01-23T02:14:33.924Z,99.99
2017-01-23T02:15:34.622Z,99.99
2017-01-23T02:16:35.300Z,99.85
2017-01-23T02:17:35.976Z,99.85
2017-01-23T02:18:36.661Z,99.57
2017-01-23T02:19:37.342Z,99.76
2017-01-23T02:20:38.021Z,99.47
2017-01-23T02:21:38.685Z,99.28
2017-01-23T02:22:39.370Z,99.47
2017-01-23T02:23:40.059Z,99.85
2017-01-23T02:24:40.743Z,99.85
2017-01-23T02:25:41.413Z,99.85
2017-01-23T02:26:42.100Z,99.85
2017-01-23T02:27:42.780Z,99.95
2017-01-23T02:28:43.476Z,99.95
2017-01-23T02:29:44.145Z,99.76
2017-01-23T02:30:44.824Z,99.76
2017-01-23T02:31:45.501Z,99.95
2017-01-23T02:32:46.195Z,99.99
2017-01-23T02:33:46.866Z,99.99
2017-01-23T02:34:47.530Z,99.99
2017-01-23T02:35:48.211Z,99.99
2017-01-23T02:36:48.896Z,99.95
2017-01-23T02:37:49.565Z,99.76
2017-01-23T02:38:50.237Z,99.95
2017-01-23T02:39:50.938Z,99.99
2017-01-23T02:40:51.589Z,99.99
2017-01-23T02:41:52.255Z,99.99
2017-01-23T02:42:52.951Z,99.85
2017-01-23T02:43:53.611Z,99.66
2017-01-23T02:44:54.289Z,99.57
2017-01-23T02:45:54.959Z,99.95
2017-01-23T02:46:55.627Z,99.57
2017-01-23T02:47:56.323Z,99.57
2017-01-23T02:48:57.006Z,99.66
2017-01-23T02:49:57.676Z,99.85
2017-01-23T02:50:58.388Z,99.99
2017-01-23T02:51:59.086Z,99.99
2017-01-23T02:52:59.761Z,99.99
2017-01-23T02:54:00.431Z,99.99
2017-01-23T02:55:01.101Z,99.99
2017-01-23T02:56:01.797Z,99.99
2017-01-23T02:57:02.460Z,99.99
2017-01-23T02:58:03.139Z,99.99
2017-01-23T02:59:03.810Z,99.99
2017-01-23T03:00:04.470Z,99.99
2017-01-23T03:01:05.158Z,99.99
2017-01-23T03:02:05.814Z,99.99
2017-01-23T03:03:06.480Z,99.99
2017-01-23T03:04:07.156Z,99.99
2017-01-23T03:05:07.832Z,99.99
2017-01-23T03:06:08.515Z,99.99
2017-01-23T03:07:09.207Z,99.99
2017-01-23T03:08:09.863Z,99.99
2017-01-23T03:09:10.542Z,99.99
2017-01-23T03:10:11.227Z,99.99
2017-01-23T03:11:11.893Z,99.99
2017-01-23T03:12:12.566Z,99.99
2017-01-23T03:13:13.242Z,99.99
2017-01-23T03:14:13.922Z,99.99
2017-01-23T03:15:14.591Z,99.99
2017-01-23T03:16:15.254Z,99.99
2017-01-23T03:17:15.956Z,99.99
2017-01-23T03:18:16.632Z,99.99
2017-01-23T03:19:17.306Z,99.99
2017-01-23T03:20:17.985Z,99.99
2017-01-23T03:21:18.687Z,99.99
2017-01-23T03:22:19.351Z,99.99
2017-01-23T03:23:20.028Z,99.99
2017-01-23T03:24:20.708Z,99.99
2017-01-23T03:25:21.373Z,99.99
2017-01-23T03:26:22.045Z,99.99
2017-01-23T03:27:22.718Z,99.99
2017-01-23T03:28:23.389Z,99.99
2017-01-23T03:29:24.091Z,99.99
2017-01-23T03:30:24.760Z,99.99
2017-01-23T03:31:25.470Z,99.99
2017-01-23T03:32:26.118Z,99.99
2017-01-23T03:33:26.830Z,99.99
2017-01-23T03:34:27.490Z,99.99
2017-01-23T03:35:28.159Z,99.99
2017-01-23T03:36:28.826Z,99.99
2017-01-23T03:37:29.516Z,99.99
2017-01-23T03:38:30.181Z,99.99
2017-01-23T03:39:30.872Z,99.99
2017-01-23T03:40:31.541Z,99.99
2017-01-23T03:41:32.202Z,99.99
2017-01-23T03:42:32.887Z,99.99
2017-01-23T03:43:33.565Z,99.99
2017-01-23T03:44:34.228Z,99.99
2017-01-23T03:45:34.900Z,99.99
2017-01-23T03:46:35.580Z,99.99
2017-01-23T03:47:36.239Z,99.99
2017-01-23T03:48:36.920Z,99.99
2017-01-23T03:49:37.588Z,99.99
2017-01-23T03:50:38.271Z,99.99
2017-01-23T03:51:38.934Z,99.99
2017-01-23T03:52:39.604Z,99.99
2017-01-23T03:53:40.283Z,99.99
2017-01-23T03:54:40.959Z,99.99
2017-01-23T03:55:41.658Z,99.99
2017-01-23T03:56:42.321Z,99.99
2017-01-23T03:57:42.997Z,99.99
2017-01-23T03:58:43.680Z,99.99
2017-01-23T03:59:44.351Z,99.99
2017-01-23T04:00:45.033Z,99.99
2017-01-23T04:01:45.728Z,99.99
2017-01-23T04:02:46.427Z,99.99
2017-01-23T04:03:47.126Z,99.99
2017-01-23T04:04:47.770Z,99.99
2017-01-23T04:05:48.437Z,99.99
2017-01-23T04:06:49.120Z,99.99
2017-01-23T04:07:49.784Z,99.99
2017-01-23T04:08:50.468Z,99.99
2017-01-23T04:09:51.134Z,99.99
2017-01-23T04:10:51.813Z,99.99
2017-01-23T04:11:52.510Z,99.99
2017-01-23T04:12:53.190Z,99.99
2017-01-23T04:13:53.873Z,99.99
2017-01-23T04:14:54.552Z,99.99
2017-01-23T04:15:55.207Z,99.99
2017-01-23T04:16:55.880Z,99.99
2017-01-23T04:17:56.558Z,99.99
2017-01-23T04:18:57.239Z,99.99
2017-01-23T04:19:57.908Z,99.95
2017-01-23T04:20:58.576Z,99.95
2017-01-23T04:21:59.247Z,99.85
2017-01-23T04:22:59.923Z,99.99
2017-01-23T04:24:00.590Z,99.99
2017-01-23T04:25:01.249Z,99.99
2017-01-23T04:26:01.925Z,99.99
2017-01-23T04:27:02.595Z,99.99
2017-01-23T04:28:03.304Z,99.99
2017-01-23T04:29:03.951Z,99.99
2017-01-23T04:30:04.620Z,99.99
2017-01-23T04:31:05.287Z,99.99
2017-01-23T04:32:05.996Z,99.99
2017-01-23T04:33:06.638Z,99.99
2017-01-23T04:34:07.308Z,99.99
2017-01-23T04:35:07.982Z,99.99
2017-01-23T04:36:08.660Z,99.99
2017-01-23T04:37:09.345Z,99.99
2017-01-23T04:38:10.009Z,99.99
2017-01-23T04:39:10.683Z,99.99
2017-01-23T04:40:11.348Z,99.99
2017-01-23T04:41:12.020Z,99.99
2017-01-23T04:42:12.692Z,99.99
2017-01-23T04:43:13.358Z,99.99
2017-01-23T04:44:14.044Z,99.99
2017-01-23T04:45:14.716Z,99.99
2017-01-23T04:46:15.385Z,99.99
2017-01-23T04:47:16.090Z,99.99
2017-01-23T04:48:16.776Z,99.99
2017-01-23T04:49:17.459Z,99.99
2017-01-23T04:50:18.131Z,99.99
2017-01-23T04:51:18.791Z,99.99
2017-01-23T04:52:19.469Z,99.99
2017-01-23T04:53:20.150Z,99.99
2017-01-23T04:54:20.820Z,99.99
2017-01-23T04:55:21.493Z,99.99
2017-01-23T04:56:22.161Z,99.99
2017-01-23T04:57:22.853Z,99.99
2017-01-23T04:58:23.529Z,99.99
2017-01-23T04:59:24.202Z,99.99
2017-01-23T05:00:24.868Z,99.99
2017-01-23T05:01:25.546Z,99.99
2017-01-23T05:02:26.207Z,99.99
2017-01-23T05:03:26.879Z,99.99
2017-01-23T05:04:27.557Z,99.99
2017-01-23T05:05:28.226Z,99.99
2017-01-23T05:06:28.895Z,99.99
2017-01-23T05:07:29.575Z,99.99
2017-01-23T05:08:30.235Z,99.99
2017-01-23T05:09:30.909Z,99.99
2017-01-23T05:10:31.587Z,99.99
2017-01-23T05:11:32.247Z,99.99
2017-01-23T05:12:32.926Z,99.99
2017-01-23T05:13:33.619Z,99.99
2017-01-23T05:14:34.288Z,99.99
2017-01-23T05:15:34.961Z,99.99
2017-01-23T05:16:35.646Z,99.99
2017-01-23T05:17:36.327Z,99.99
2017-01-23T05:18:36.993Z,99.99
2017-01-23T05:19:37.663Z,99.99
2017-01-23T05:20:38.339Z,99.99
2017-01-23T05:21:39.026Z,99.99
2017-01-23T05:22:39.699Z,99.99
2017-01-23T05:23:40.384Z,99.99
2017-01-23T05:24:41.070Z,99.99
2017-01-23T05:25:41.736Z,99.99
2017-01-23T05:26:42.413Z,99.99
2017-01-23T05:27:43.087Z,99.99
2017-01-23T05:28:43.751Z,99.99
2017-01-23T05:29:44.434Z,99.99
2017-01-23T05:30:45.103Z,99.99
2017-01-23T05:31:45.775Z,99.99
2017-01-23T05:32:46.451Z,99.99
2017-01-23T05:33:47.119Z,99.99
2017-01-23T05:34:47.790Z,99.99
2017-01-23T05:35:48.465Z,99.99
2017-01-23T05:36:49.133Z,99.99
2017-01-23T05:37:49.812Z,99.99
2017-01-23T05:38:50.473Z,99.99
2017-01-23T05:39:51.154Z,99.99
2017-01-23T05:40:51.831Z,99.99
2017-01-23T05:41:52.506Z,99.99
2017-01-23T05:42:53.191Z,99.99
2017-01-23T05:43:53.848Z,99.99
2017-01-23T05:44:54.540Z,99.99
2017-01-23T05:45:55.233Z,99.99
2017-01-23T05:46:55.912Z,99.99
2017-01-23T05:47:56.584Z,99.99
2017-01-23T05:48:57.255Z,99.99
2017-01-23T05:49:57.943Z,99.99
2017-01-23T05:50:58.615Z,99.99
2017-01-23T05:51:59.287Z,99.99
2017-01-23T05:52:59.960Z,99.99
2017-01-23T05:54:00.657Z,99.99
2017-01-23T05:55:01.348Z,99.99
2017-01-23T05:56:02.018Z,99.99
2017-01-23T05:57:02.677Z,99.99
2017-01-23T05:58:03.343Z,99.99
2017-01-23T05:59:04.015Z,99.99
2017-01-23T06:00:04.697Z,99.99
2017-01-23T06:01:05.375Z,99.99
2017-01-23T06:02:06.047Z,99.99
2017-01-23T06:03:06.729Z,99.99
2017-01-23T06:04:07.413Z,99.99
2017-01-23T06:05:08.112Z,99.99
2017-01-23T06:06:08.786Z,99.99
2017-01-23T06:07:09.457Z,99.99
2017-01-23T06:08:10.183Z,99.99
2017-01-23T06:09:10.879Z,99.99
2017-01-23T06:10:11.552Z,99.99
2017-01-23T06:11:12.227Z,99.99
2017-01-23T06:12:12.888Z,99.99
2017-01-23T06:13:13.565Z,99.99
2017-01-23T06:14:14.236Z,99.99
2017-01-23T06:15:14.913Z,99.99
2017-01-23T06:16:15.586Z,99.99
2017-01-23T06:17:16.287Z,99.99
2017-01-23T06:18:16.930Z,99.99
2017-01-23T06:19:17.629Z,99.99
2017-01-23T06:20:18.280Z,99.99
2017-01-23T06:21:18.949Z,99.99
2017-01-23T06:22:19.616Z,99.99
2017-01-23T06:23:20.302Z,99.99
2017-01-23T06:24:20.970Z,99.99
2017-01-23T06:25:21.640Z,99.99
2017-01-23T06:26:22.328Z,99.99
2017-01-23T06:27:23.009Z,99.99
2017-01-23T06:28:23.683Z,99.99
2017-01-23T06:29:24.356Z,99.99
2017-01-23T06:30:25.023Z,99.99
2017-01-23T06:31:25.703Z,99.99
2017-01-23T06:32:26.360Z,99.99
2017-01-23T06:33:27.027Z,99.99
2017-01-23T06:34:27.722Z,99.99
2017-01-23T06:35:28.411Z,99.99
2017-01-23T06:36:29.111Z,99.99
2017-01-23T06:37:29.788Z,99.99
2017-01-23T06:38:30.468Z,99.99
2017-01-23T06:39:31.137Z,99.99
2017-01-23T06:40:31.830Z,99.99
2017-01-23T06:41:32.502Z,99.99
2017-01-23T06:42:33.176Z,99.99
2017-01-23T06:43:33.845Z,99.99
2017-01-23T06:44:34.515Z,99.99
2017-01-23T06:45:35.201Z,99.99
2017-01-23T06:46:35.892Z,99.99
2017-01-23T06:47:36.577Z,99.99
2017-01-23T06:48:37.238Z,99.99
2017-01-23T06:49:37.918Z,99.99
2017-01-23T06:50:38.605Z,99.99
2017-01-23T06:51:39.280Z,99.99
2017-01-23T06:52:39.949Z,99.99
2017-01-23T06:53:40.630Z,99.99
2017-01-23T06:54:41.326Z,99.99
2017-01-23T06:55:41.991Z,99.99
2017-01-23T06:56:42.699Z,99.99
2017-01-23T06:57:43.377Z,99.99
2017-01-23T06:58:44.053Z,99.99
2017-01-23T06:59:44.727Z,99.99
2017-01-23T07:00:45.417Z,99.99
2017-01-23T07:01:46.102Z,99.99
2017-01-23T07:02:46.780Z,99.99
2017-01-23T07:03:47.458Z,99.99
2017-01-23T07:04:48.126Z,99.99
2017-01-23T07:05:48.798Z,99.99
2017-01-23T07:06:49.485Z,99.99
2017-01-23T07:07:50.172Z,99.99
2017-01-23T07:08:50.829Z,99.99
2017-01-23T07:09:51.509Z,99.99
2017-01-23T07:10:52.185Z,99.99
2017-01-23T07:11:52.849Z,99.99
2017-01-23T07:12:53.580Z,99.99
2017-01-23T07:13:54.249Z,99.99
2017-01-23T07:14:54.918Z,99.99
2017-01-23T07:15:55.597Z,99.99
2017-01-23T07:16:56.278Z,99.99
2017-01-23T07:17:56.967Z,99.99
2017-01-23T07:18:57.668Z,99.99
2017-01-23T07:19:58.347Z,99.99
2017-01-23T07:20:59.032Z,99.99
2017-01-23T07:21:59.697Z,99.99
2017-01-23T07:23:00.375Z,99.99
2017-01-23T07:24:01.068Z,99.99
2017-01-23T07:25:01.742Z,99.99
2017-01-23T07:26:02.464Z,99.99
2017-01-23T07:27:03.133Z,99.99
2017-01-23T07:28:03.831Z,99.99
2017-01-23T07:29:04.555Z,99.99
2017-01-23T07:30:05.217Z,99.99
2017-01-23T07:31:05.893Z,99.99
2017-01-23T07:32:06.565Z,99.99
2017-01-23T07:33:07.230Z,99.99
2017-01-23T07:34:07.926Z,99.99
2017-01-23T07:35:08.606Z,99.99
2017-01-23T07:36:09.325Z,99.99
2017-01-23T07:37:10.010Z,99.99
2017-01-23T07:38:10.714Z,99.99
2017-01-23T07:39:11.392Z,99.99
2017-01-23T07:40:12.078Z,99.99
2017-01-23T07:41:12.781Z,99.99
2017-01-23T07:42:13.462Z,99.99
2017-01-23T07:43:14.163Z,99.99
2017-01-23T07:44:14.861Z,99.99
2017-01-23T07:45:15.568Z,99.99
2017-01-23T07:46:16.239Z,99.99
2017-01-23T07:47:16.900Z,99.99
2017-01-23T07:48:17.572Z,99.99
2017-01-23T07:49:18.291Z,99.99
2017-01-23T07:50:18.989Z,99.99
2017-01-23T07:51:19.667Z,99.99
2017-01-23T07:52:20.357Z,99.99
2017-01-23T07:53:21.030Z,99.99
2017-01-23T07:54:21.708Z,99.99
2017-01-23T07:55:22.383Z,99.99
2017-01-23T07:56:23.060Z,99.99
2017-01-23T07:57:23.746Z,99.99
2017-01-23T07:58:24.414Z,99.99
2017-01-23T07:59:25.081Z,99.99
2017-01-23T08:00:25.753Z,99.99
2017-01-23T08:01:26.439Z,99.99
2017-01-23T08:02:27.104Z,99.99
2017-01-23T08:03:27.771Z,99.99
2017-01-23T08:04:28.453Z,99.99
2017-01-23T08:05:29.127Z,99.99
2017-01-23T08:06:29.797Z,99.99
2017-01-23T08:07:30.470Z,99.99
2017-01-23T08:08:31.139Z,99.99
2017-01-23T08:09:31.824Z,99.99
2017-01-23T08:10:32.512Z,99.99
2017-01-23T08:11:33.182Z,99.99
2017-01-23T08:12:33.862Z,99.99
2017-01-23T08:13:34.528Z,99.99
2017-01-23T08:14:35.222Z,99.99
2017-01-23T08:15:35.891Z,99.99
2017-01-23T08:16:36.565Z,99.99
2017-01-23T08:17:37.240Z,99.99
2017-01-23T08:18:37.922Z,99.99
2017-01-23T08:19:38.594Z,99.99
2017-01-23T08:20:39.275Z,99.99
2017-01-23T08:21:39.948Z,99.99
2017-01-23T08:22:40.633Z,99.99
2017-01-23T08:23:41.307Z,99.99
2017-01-23T08:24:41.999Z,99.99
2017-01-23T08:25:42.667Z,99.99
2017-01-23T08:26:43.350Z,99.99
2017-01-23T08:27:44.030Z,99.99
2017-01-23T08:28:44.715Z,99.99
2017-01-23T08:29:45.395Z,99.99
2017-01-23T08:30:46.081Z,99.99
2017-01-23T08:31:46.752Z,99.99
2017-01-23T08:32:47.451Z,99.99
2017-01-23T08:33:48.123Z,99.99
2017-01-23T08:34:48.790Z,99.99
2017-01-23T08:35:49.463Z,99.99
2017-01-23T08:36:50.133Z,99.99
2017-01-23T08:37:50.820Z,99.99
2017-01-23T08:38:51.498Z,99.99
2017-01-23T08:39:52.185Z,99.99
2017-01-23T08:40:52.865Z,99.99
2017-01-23T08:41:53.541Z,99.99
2017-01-23T08:42:54.218Z,99.99
2017-01-23T08:43:54.914Z,99.99
2017-01-23T08:44:55.590Z,99.99
2017-01-23T08:45:56.275Z,99.99
2017-01-23T08:46:56.955Z,99.99
2017-01-23T08:47:57.632Z,99.9
2017-01-23T08:48:58.322Z,99.71
2017-01-23T08:49:58.997Z,99.8
2017-01-23T08:50:59.672Z,99.57
2017-01-23T08:52:00.348Z,99.9
2017-01-23T08:53:01.019Z,99.33
2017-01-23T08:54:01.687Z,99.95
2017-01-23T08:55:02.354Z,99.66
2017-01-23T08:56:03.035Z,99.9
2017-01-23T08:57:03.715Z,99.62
2017-01-23T08:58:04.389Z,99.57
2017-01-23T08:59:05.075Z,99.9
2017-01-23T09:00:05.772Z,99.9
2017-01-23T09:01:06.451Z,99.33
2017-01-23T09:02:07.131Z,99.24
2017-01-23T09:03:07.810Z,99.33
2017-01-23T09:04:08.482Z,99.24
2017-01-23T09:05:09.190Z,99.24
2017-01-23T09:06:09.873Z,98.52
2017-01-23T09:07:10.557Z,98.62
2017-01-23T09:08:11.235Z,99.24
2017-01-23T09:09:11.921Z,99.05
2017-01-23T09:10:12.597Z,99.05
2017-01-23T09:11:13.277Z,99.24
2017-01-23T09:12:13.945Z,99.05
2017-01-23T09:13:14.624Z,99.24
2017-01-23T09:14:15.287Z,98.86
2017-01-23T09:15:16.002Z,98.39
2017-01-23T09:16:16.685Z,98.39
2017-01-23T09:17:17.354Z,99.05
2017-01-23T09:18:18.033Z,98.77
2017-01-23T09:19:18.709Z,99.43
2017-01-23T09:20:19.384Z,98.86
2017-01-23T09:21:20.088Z,98.86
2017-01-23T09:22:20.761Z,98.86
2017-01-23T09:23:21.447Z,99.33
2017-01-23T09:24:22.122Z,98.86
2017-01-23T09:25:22.788Z,98.86
2017-01-23T09:26:23.463Z,98.67
2017-01-23T09:27:24.143Z,98.58
2017-01-23T09:28:24.810Z,98.1
2017-01-23T09:29:25.484Z,98.2
2017-01-23T09:30:26.156Z,98.1
2017-01-23T09:31:26.816Z,97.72
2017-01-23T09:32:27.492Z,98.1
2017-01-23T09:33:28.164Z,98.1
2017-01-23T09:34:28.845Z,97.82
2017-01-23T09:35:29.522Z,98.39
2017-01-23T09:36:30.194Z,97.63
2017-01-23T09:37:30.862Z,97.53
2017-01-23T09:38:31.539Z,97.53
2017-01-23T09:39:32.420Z,97.82
2017-01-23T09:40:33.167Z,97.82
2017-01-23T09:41:33.764Z,96.78
2017-01-23T09:42:34.459Z,97.53
2017-01-23T09:43:35.126Z,97.16
2017-01-23T09:44:35.807Z,96.97
2017-01-23T09:45:36.475Z,96.97
2017-01-23T09:46:37.156Z,97.25
2017-01-23T09:47:37.855Z,97.06
2017-01-23T09:48:38.549Z,96.97
2017-01-23T09:49:39.217Z,96.69
2017-01-23T09:50:39.904Z,96.69
2017-01-23T09:51:40.585Z,96.59
2017-01-23T09:52:41.326Z,96.88
2017-01-23T09:53:41.950Z,96.54
2017-01-23T09:54:42.630Z,96.16
2017-01-23T09:55:43.313Z,96.31
2017-01-23T09:56:43.974Z,96.02
2017-01-23T09:57:44.676Z,95.97
2017-01-23T09:58:45.359Z,95.88
2017-01-23T09:59:46.075Z,95.97
2017-01-23T10:00:46.760Z,95.21
2017-01-23T10:01:47.436Z,95.31
2017-01-23T10:02:48.120Z,95.21
2017-01-23T10:03:48.788Z,95.03
2017-01-23T10:04:49.472Z,95.03
2017-01-23T10:05:50.153Z,94.93
2017-01-23T10:06:50.835Z,94.84
2017-01-23T10:07:51.511Z,94.74
2017-01-23T10:08:52.204Z,94.74
2017-01-23T10:09:52.904Z,94.74
2017-01-23T10:10:53.573Z,94.84
2017-01-23T10:11:54.250Z,94.46
2017-01-23T10:12:54.936Z,94.74
2017-01-23T10:13:55.625Z,94.27
2017-01-23T10:14:56.299Z,94.27
2017-01-23T10:15:57.027Z,93.61
2017-01-23T10:16:57.706Z,93.8
2017-01-23T10:17:58.389Z,94.18
2017-01-23T10:18:59.073Z,94.27
2017-01-23T10:19:59.760Z,94.46
2017-01-23T10:21:00.464Z,94.27
2017-01-23T10:22:01.119Z,93.89
2017-01-23T10:23:01.799Z,93.8
2017-01-23T10:24:02.492Z,94.08
2017-01-23T10:25:03.161Z,94.08
2017-01-23T10:26:03.862Z,94.27
2017-01-23T10:27:04.554Z,93.89
2017-01-23T10:28:05.247Z,93.61
2017-01-23T10:29:05.922Z,93.7
2017-01-23T10:30:06.594Z,92.94
2017-01-23T10:31:07.303Z,93.23
2017-01-23T10:32:07.985Z,93.23
2017-01-23T10:33:08.665Z,93.04
2017-01-23T10:34:09.343Z,93.13
2017-01-23T10:35:10.037Z,92.29
2017-01-23T10:36:10.715Z,92.57
2017-01-23T10:37:11.411Z,93.23
2017-01-23T10:38:12.085Z,93.04
2017-01-23T10:39:12.756Z,92.85
2017-01-23T10:40:13.431Z,92.1
2017-01-23T10:41:14.146Z,92.38
2017-01-23T10:42:14.826Z,92
2017-01-23T10:43:15.502Z,92.1
2017-01-23T10:44:16.200Z,92.1
2017-01-23T10:45:16.862Z,92.38
2017-01-23T10:46:17.533Z,92.66
2017-01-23T10:47:18.227Z,92.1
2017-01-23T10:48:18.915Z,92.47
2017-01-23T10:49:19.593Z,92.29
2017-01-23T10:50:20.268Z,91.91
2017-01-23T10:51:20.949Z,92.19
2017-01-23T10:52:21.634Z,92.57
2017-01-23T10:53:22.358Z,92
2017-01-23T10:54:23.175Z,92
2017-01-23T10:55:23.960Z,92.66
2017-01-23T10:56:24.730Z,92
2017-01-23T10:57:25.461Z,92.1
2017-01-23T10:58:26.129Z,91.95
2017-01-23T10:59:26.829Z,92.14
2017-01-23T11:00:27.521Z,91.57
2017-01-23T11:01:28.214Z,91.15
2017-01-23T11:02:28.882Z,91.29
2017-01-23T11:03:29.585Z,91.29
2017-01-23T11:04:30.261Z,91.1
2017-01-23T11:05:30.946Z,91.38
2017-01-23T11:06:31.663Z,91.29
2017-01-23T11:07:32.337Z,91.1
2017-01-23T11:08:33.010Z,90.91
2017-01-23T11:09:33.696Z,90.44
2017-01-23T11:10:34.378Z,90.15
2017-01-23T11:11:35.075Z,90.06
2017-01-23T11:12:35.770Z,91
2017-01-23T11:13:36.464Z,90.81
2017-01-23T11:14:37.169Z,90.44
2017-01-23T11:15:37.838Z,90.53
2017-01-23T11:16:38.531Z,90.34
2017-01-23T11:17:39.211Z,90.72
2017-01-23T11:18:39.874Z,90.72
2017-01-23T11:19:40.567Z,90.63
2017-01-23T11:20:41.248Z,90.34
2017-01-23T11:21:41.932Z,89.96
2017-01-23T11:22:42.617Z,90.25
2017-01-23T11:23:43.333Z,90.06
2017-01-23T11:24:44.032Z,90.34
2017-01-23T11:25:44.703Z,90.06
2017-01-23T11:26:45.373Z,90.25
2017-01-23T11:27:46.048Z,89.77
2017-01-23T11:28:46.721Z,90.25
2017-01-23T11:29:47.410Z,90.06
2017-01-23T11:30:48.094Z,89.77
2017-01-23T11:31:48.788Z,89.68
2017-01-23T11:32:49.462Z,89.58
2017-01-23T11:33:50.149Z,89.77
2017-01-23T11:34:50.857Z,89.58
2017-01-23T11:35:51.508Z,89.77
2017-01-23T11:36:52.187Z,90.06
2017-01-23T11:37:52.904Z,89.77
2017-01-23T11:38:53.568Z,89.58
2017-01-23T11:39:54.250Z,89.58
2017-01-23T11:40:54.920Z,89.68
2017-01-23T11:41:55.611Z,89.77
2017-01-23T11:42:56.292Z,89.49
2017-01-23T11:43:56.966Z,89.68
2017-01-23T11:44:57.648Z,89.58
2017-01-23T11:45:58.320Z,89.87
2017-01-23T11:46:58.995Z,89.96
2017-01-23T11:47:59.679Z,90.15
2017-01-23T11:49:00.366Z,89.96
2017-01-23T11:50:01.051Z,90.25
2017-01-23T11:51:01.743Z,90.15
2017-01-23T11:52:02.414Z,91.29
2017-01-23T11:53:03.087Z,90.81
2017-01-23T11:54:03.766Z,90.91
2017-01-23T11:55:04.438Z,91.38
2017-01-23T11:56:05.118Z,91.67
2017-01-23T11:57:05.793Z,91
2017-01-23T11:58:06.493Z,91
2017-01-23T11:59:07.175Z,91.29
2017-01-23T12:00:07.855Z,91.19
2017-01-23T12:01:08.536Z,91.48
2017-01-23T12:02:09.207Z,91.1
2017-01-23T12:03:09.892Z,91.1
2017-01-23T12:04:10.596Z,90.44
2017-01-23T12:05:11.293Z,90.63
2017-01-23T12:06:11.994Z,90.44
2017-01-23T12:07:12.671Z,90.91
2017-01-23T12:08:13.370Z,91.19
2017-01-23T12:09:14.037Z,91.48
2017-01-23T12:10:14.716Z,91.1
2017-01-23T12:11:15.402Z,90.91
2017-01-23T12:12:16.092Z,91.1
2017-01-23T12:13:16.771Z,91.1
2017-01-23T12:14:17.448Z,91.1
2017-01-23T12:15:18.151Z,91.48
2017-01-23T12:16:18.829Z,91.95
2017-01-23T12:17:19.535Z,91.57
2017-01-23T12:18:20.213Z,91.19
2017-01-23T12:19:20.895Z,91.1
2017-01-23T12:20:21.596Z,91.29
2017-01-23T12:21:22.274Z,91.1
2017-01-23T12:22:22.944Z,92.14
2017-01-23T12:23:23.611Z,91.67
2017-01-23T12:24:24.329Z,92.14
2017-01-23T12:25:24.994Z,91.91
2017-01-23T12:26:25.684Z,92.14
2017-01-23T12:27:26.393Z,92.9
2017-01-23T12:28:27.070Z,92.57
2017-01-23T12:29:27.740Z,92.61
2017-01-23T12:30:28.436Z,92.52
2017-01-23T12:31:29.118Z,92.14
2017-01-23T12:32:29.804Z,92.61
2017-01-23T12:33:30.492Z,92.61
2017-01-23T12:34:31.184Z,92.9
2017-01-23T12:35:31.862Z,92.38
2017-01-23T12:36:32.532Z,92.61
2017-01-23T12:37:33.208Z,92.71
2017-01-23T12:38:33.875Z,92.61
2017-01-23T12:39:34.580Z,93.18
2017-01-23T12:40:35.273Z,93.18
2017-01-23T12:41:35.991Z,92.9
2017-01-23T12:42:36.672Z,92.43
2017-01-23T12:43:37.343Z,92.43
2017-01-23T12:44:38.016Z,92.33
2017-01-23T12:45:38.688Z,92.52
2017-01-23T12:46:39.359Z,92.71
2017-01-23T12:47:40.034Z,92.43
2017-01-23T12:48:40.698Z,92.24
2017-01-23T12:49:41.366Z,92.05
2017-01-23T12:50:42.036Z,92
2017-01-23T12:51:42.720Z,92.57
2017-01-23T12:52:43.399Z,93.23
2017-01-23T12:53:44.065Z,92.94
2017-01-23T12:54:44.736Z,93.23
2017-01-23T12:55:45.436Z,93.13
2017-01-23T12:56:46.121Z,93.23
2017-01-23T12:57:46.802Z,93.04
2017-01-23T12:58:47.479Z,93.04
2017-01-23T12:59:48.158Z,93.23
2017-01-23T13:00:48.844Z,92.94
2017-01-23T13:01:49.578Z,93.13
2017-01-23T13:02:50.273Z,93.13
2017-01-23T13:03:50.953Z,93.42